sensor_id;sensor_type;location;lat;lon;timestamp;P1;durP1;ratioP1;P2;durP2;ratioP2
70312;SDS011;57723;51.698;5.344;2022-11-20T00:01:53;6.50;;;3.28;;
70312;SDS011;57723;51.698;5.344;2022-11-20T00:04:18;6.93;;;3.20;;
70312;SDS011;57723;51.698;5.344;2022-11-20T00:06:45;5.27;;;3.03;;
70312;SDS011;57723;51.698;5.344;2022-11-20T00:09:11;8.73;;;3.53;;
70312;SDS011;57723;51.698;5.344;2022-11-20T00:11:36;5.47;;;3.20;;
70312;SDS011;57723;51.698;5.344;2022-11-20T00:14:02;5.77;;;2.93;;
70312;SDS011;57723;51.698;5.344;2022-11-20T00:16:29;6.67;;;2.97;;
70312;SDS011;57723;51.698;5.344;2022-11-20T00:18:55;7.10;;;2.88;;
70312;SDS011;57723;51.698;5.344;2022-11-20T00:21:21;7.57;;;3.27;;
70312;SDS011;57723;51.698;5.344;2022-11-20T00:23:46;5.57;;;3.08;;
70312;SDS011;57723;51.698;5.344;2022-11-20T00:26:12;7.83;;;3.20;;
70312;SDS011;57723;51.698;5.344;2022-11-20T00:28:38;5.70;;;2.95;;
70312;SDS011;57723;51.698;5.344;2022-11-20T00:31:04;7.20;;;3.10;;
70312;SDS011;57723;51.698;5.344;2022-11-20T00:33:30;6.13;;;3.13;;
70312;SDS011;57723;51.698;5.344;2022-11-20T00:36:05;6.75;;;3.58;;
70312;SDS011;57723;51.698;5.344;2022-11-20T00:38:31;5.75;;;3.40;;
70312;SDS011;57723;51.698;5.344;2022-11-20T00:41:00;6.60;;;3.08;;
70312;SDS011;57723;51.698;5.344;2022-11-20T00:43:25;8.23;;;3.17;;
70312;SDS011;57723;51.698;5.344;2022-11-20T00:45:51;9.03;;;3.23;;
70312;SDS011;57723;51.698;5.344;2022-11-20T00:48:20;5.63;;;3.00;;
70312;SDS011;57723;51.698;5.344;2022-11-20T00:50:46;7.97;;;3.13;;
70312;SDS011;57723;51.698;5.344;2022-11-20T00:53:11;5.43;;;3.20;;
70312;SDS011;57723;51.698;5.344;2022-11-20T00:55:36;7.27;;;3.47;;
70312;SDS011;57723;51.698;5.344;2022-11-20T00:58:01;5.53;;;3.20;;
70312;SDS011;57723;51.698;5.344;2022-11-20T01:00:26;6.17;;;3.10;;
70312;SDS011;57723;51.698;5.344;2022-11-20T01:02:52;6.23;;;3.00;;
70312;SDS011;57723;51.698;5.344;2022-11-20T01:05:17;5.20;;;2.90;;
70312;SDS011;57723;51.698;5.344;2022-11-20T01:07:42;6.43;;;3.17;;
70312;SDS011;57723;51.698;5.344;2022-11-20T01:10:07;7.40;;;3.43;;
70312;SDS011;57723;51.698;5.344;2022-11-20T01:12:32;6.03;;;2.90;;
70312;SDS011;57723;51.698;5.344;2022-11-20T01:14:58;5.03;;;2.83;;
70312;SDS011;57723;51.698;5.344;2022-11-20T01:17:23;4.87;;;2.97;;
70312;SDS011;57723;51.698;5.344;2022-11-20T01:19:49;4.63;;;2.80;;
70312;SDS011;57723;51.698;5.344;2022-11-20T01:22:15;5.32;;;3.05;;
70312;SDS011;57723;51.698;5.344;2022-11-20T01:24:40;6.93;;;3.30;;
70312;SDS011;57723;51.698;5.344;2022-11-20T01:27:05;5.30;;;2.83;;
70312;SDS011;57723;51.698;5.344;2022-11-20T01:29:30;5.65;;;3.03;;
70312;SDS011;57723;51.698;5.344;2022-11-20T01:31:55;6.80;;;3.20;;
70312;SDS011;57723;51.698;5.344;2022-11-20T01:34:21;5.57;;;2.90;;
70312;SDS011;57723;51.698;5.344;2022-11-20T01:36:47;5.22;;;3.13;;
70312;SDS011;57723;51.698;5.344;2022-11-20T01:39:14;4.83;;;3.17;;
70312;SDS011;57723;51.698;5.344;2022-11-20T01:41:40;5.47;;;3.30;;
70312;SDS011;57723;51.698;5.344;2022-11-20T01:47:08;5.45;;;2.78;;
70312;SDS011;57723;51.698;5.344;2022-11-20T01:49:37;6.72;;;2.75;;
70312;SDS011;57723;51.698;5.344;2022-11-20T01:52:25;5.70;;;3.08;;
70312;SDS011;57723;51.698;5.344;2022-11-20T01:54:53;6.07;;;3.05;;
70312;SDS011;57723;51.698;5.344;2022-11-20T01:57:20;5.50;;;2.88;;
70312;SDS011;57723;51.698;5.344;2022-11-20T01:59:52;4.53;;;2.60;;
70312;SDS011;57723;51.698;5.344;2022-11-20T02:02:19;5.63;;;3.13;;
70312;SDS011;57723;51.698;5.344;2022-11-20T02:04:44;6.22;;;2.85;;
70312;SDS011;57723;51.698;5.344;2022-11-20T02:07:09;5.67;;;3.00;;
70312;SDS011;57723;51.698;5.344;2022-11-20T02:09:35;6.07;;;3.10;;
70312;SDS011;57723;51.698;5.344;2022-11-20T02:12:00;5.33;;;3.10;;
70312;SDS011;57723;51.698;5.344;2022-11-20T02:14:26;6.23;;;2.80;;
70312;SDS011;57723;51.698;5.344;2022-11-20T02:16:51;5.97;;;3.00;;
70312;SDS011;57723;51.698;5.344;2022-11-20T02:19:30;5.28;;;2.70;;
70312;SDS011;57723;51.698;5.344;2022-11-20T02:21:58;6.03;;;3.10;;
70312;SDS011;57723;51.698;5.344;2022-11-20T02:24:24;5.63;;;2.88;;
70312;SDS011;57723;51.698;5.344;2022-11-20T02:26:54;4.83;;;2.80;;
70312;SDS011;57723;51.698;5.344;2022-11-20T02:29:23;5.40;;;2.83;;
70312;SDS011;57723;51.698;5.344;2022-11-20T02:31:49;5.47;;;2.92;;
70312;SDS011;57723;51.698;5.344;2022-11-20T02:34:15;5.10;;;2.90;;
70312;SDS011;57723;51.698;5.344;2022-11-20T02:36:40;4.63;;;2.80;;
70312;SDS011;57723;51.698;5.344;2022-11-20T02:39:06;4.85;;;2.97;;
70312;SDS011;57723;51.698;5.344;2022-11-20T02:41:34;4.30;;;2.70;;
70312;SDS011;57723;51.698;5.344;2022-11-20T02:44:00;6.75;;;3.10;;
70312;SDS011;57723;51.698;5.344;2022-11-20T02:46:26;5.43;;;3.10;;
70312;SDS011;57723;51.698;5.344;2022-11-20T02:48:51;7.07;;;2.97;;
70312;SDS011;57723;51.698;5.344;2022-11-20T02:51:16;6.03;;;3.03;;
70312;SDS011;57723;51.698;5.344;2022-11-20T02:53:42;4.50;;;2.70;;
70312;SDS011;57723;51.698;5.344;2022-11-20T02:56:07;5.00;;;2.87;;
70312;SDS011;57723;51.698;5.344;2022-11-20T02:58:32;7.60;;;3.27;;
70312;SDS011;57723;51.698;5.344;2022-11-20T03:00:57;5.27;;;2.90;;
70312;SDS011;57723;51.698;5.344;2022-11-20T03:03:22;7.27;;;2.87;;
70312;SDS011;57723;51.698;5.344;2022-11-20T03:05:47;4.97;;;2.80;;
70312;SDS011;57723;51.698;5.344;2022-11-20T03:08:13;4.70;;;2.70;;
70312;SDS011;57723;51.698;5.344;2022-11-20T03:10:38;5.00;;;2.97;;
70312;SDS011;57723;51.698;5.344;2022-11-20T03:13:03;6.30;;;2.80;;
70312;SDS011;57723;51.698;5.344;2022-11-20T03:15:31;7.00;;;2.80;;
70312;SDS011;57723;51.698;5.344;2022-11-20T03:18:04;6.18;;;3.15;;
70312;SDS011;57723;51.698;5.344;2022-11-20T03:20:29;4.95;;;2.60;;
70312;SDS011;57723;51.698;5.344;2022-11-20T03:22:57;5.22;;;2.88;;
70312;SDS011;57723;51.698;5.344;2022-11-20T03:25:23;5.77;;;2.97;;
70312;SDS011;57723;51.698;5.344;2022-11-20T03:27:51;5.53;;;2.90;;
70312;SDS011;57723;51.698;5.344;2022-11-20T03:30:17;4.00;;;2.53;;
70312;SDS011;57723;51.698;5.344;2022-11-20T03:32:45;5.38;;;2.85;;
70312;SDS011;57723;51.698;5.344;2022-11-20T03:35:26;4.65;;;2.58;;
70312;SDS011;57723;51.698;5.344;2022-11-20T03:37:55;4.00;;;2.60;;
70312;SDS011;57723;51.698;5.344;2022-11-20T03:40:21;4.85;;;2.85;;
70312;SDS011;57723;51.698;5.344;2022-11-20T03:42:49;5.38;;;3.10;;
70312;SDS011;57723;51.698;5.344;2022-11-20T03:45:15;5.00;;;3.00;;
70312;SDS011;57723;51.698;5.344;2022-11-20T03:47:41;6.10;;;2.88;;
70312;SDS011;57723;51.698;5.344;2022-11-20T03:50:07;4.57;;;2.93;;
70312;SDS011;57723;51.698;5.344;2022-11-20T03:52:32;5.20;;;3.13;;
70312;SDS011;57723;51.698;5.344;2022-11-20T03:54:57;5.43;;;2.90;;
70312;SDS011;57723;51.698;5.344;2022-11-20T03:57:22;5.13;;;2.80;;
70312;SDS011;57723;51.698;5.344;2022-11-20T03:59:47;5.50;;;2.87;;
70312;SDS011;57723;51.698;5.344;2022-11-20T04:02:13;4.30;;;2.60;;
70312;SDS011;57723;51.698;5.344;2022-11-20T04:04:38;5.80;;;3.00;;
70312;SDS011;57723;51.698;5.344;2022-11-20T04:07:03;4.57;;;2.63;;
70312;SDS011;57723;51.698;5.344;2022-11-20T04:09:29;4.50;;;2.85;;
70312;SDS011;57723;51.698;5.344;2022-11-20T04:11:54;5.30;;;2.67;;
70312;SDS011;57723;51.698;5.344;2022-11-20T04:14:19;5.67;;;2.97;;
70312;SDS011;57723;51.698;5.344;2022-11-20T04:16:44;7.97;;;2.90;;
70312;SDS011;57723;51.698;5.344;2022-11-20T04:19:10;4.83;;;2.90;;
70312;SDS011;57723;51.698;5.344;2022-11-20T04:21:36;5.47;;;2.65;;
70312;SDS011;57723;51.698;5.344;2022-11-20T04:24:01;5.17;;;2.90;;
70312;SDS011;57723;51.698;5.344;2022-11-20T04:26:27;5.60;;;3.00;;
70312;SDS011;57723;51.698;5.344;2022-11-20T04:28:53;4.63;;;2.75;;
70312;SDS011;57723;51.698;5.344;2022-11-20T04:31:20;4.37;;;2.50;;
70312;SDS011;57723;51.698;5.344;2022-11-20T04:33:45;4.95;;;2.70;;
70312;SDS011;57723;51.698;5.344;2022-11-20T04:36:11;5.83;;;2.67;;
70312;SDS011;57723;51.698;5.344;2022-11-20T04:38:36;5.18;;;2.83;;
70312;SDS011;57723;51.698;5.344;2022-11-20T04:41:03;5.73;;;2.90;;
70312;SDS011;57723;51.698;5.344;2022-11-20T04:43:29;4.13;;;2.53;;
70312;SDS011;57723;51.698;5.344;2022-11-20T04:45:54;5.57;;;2.70;;
70312;SDS011;57723;51.698;5.344;2022-11-20T04:48:20;5.72;;;3.00;;
70312;SDS011;57723;51.698;5.344;2022-11-20T04:50:45;5.30;;;2.73;;
70312;SDS011;57723;51.698;5.344;2022-11-20T04:53:11;4.10;;;2.47;;
70312;SDS011;57723;51.698;5.344;2022-11-20T04:55:36;4.77;;;2.70;;
70312;SDS011;57723;51.698;5.344;2022-11-20T04:58:01;4.77;;;3.00;;
70312;SDS011;57723;51.698;5.344;2022-11-20T05:00:26;4.40;;;2.80;;
70312;SDS011;57723;51.698;5.344;2022-11-20T05:02:51;5.80;;;2.90;;
70312;SDS011;57723;51.698;5.344;2022-11-20T05:05:17;5.13;;;2.90;;
70312;SDS011;57723;51.698;5.344;2022-11-20T05:07:42;4.63;;;2.83;;
70312;SDS011;57723;51.698;5.344;2022-11-20T05:10:07;6.40;;;2.93;;
70312;SDS011;57723;51.698;5.344;2022-11-20T05:12:32;4.97;;;2.80;;
70312;SDS011;57723;51.698;5.344;2022-11-20T05:14:57;4.50;;;2.60;;
70312;SDS011;57723;51.698;5.344;2022-11-20T05:17:23;6.03;;;3.00;;
70312;SDS011;57723;51.698;5.344;2022-11-20T05:19:48;4.83;;;2.73;;
70312;SDS011;57723;51.698;5.344;2022-11-20T05:22:13;5.85;;;2.42;;
70312;SDS011;57723;51.698;5.344;2022-11-20T05:24:38;4.30;;;2.53;;
70312;SDS011;57723;51.698;5.344;2022-11-20T05:27:03;5.90;;;2.83;;
70312;SDS011;57723;51.698;5.344;2022-11-20T05:29:28;5.47;;;2.60;;
70312;SDS011;57723;51.698;5.344;2022-11-20T05:31:54;5.57;;;2.83;;
70312;SDS011;57723;51.698;5.344;2022-11-20T05:34:19;5.40;;;2.53;;
70312;SDS011;57723;51.698;5.344;2022-11-20T05:36:44;5.70;;;3.03;;
70312;SDS011;57723;51.698;5.344;2022-11-20T05:39:09;6.20;;;2.60;;
70312;SDS011;57723;51.698;5.344;2022-11-20T05:41:34;5.13;;;3.13;;
70312;SDS011;57723;51.698;5.344;2022-11-20T05:43:59;5.22;;;3.00;;
70312;SDS011;57723;51.698;5.344;2022-11-20T05:46:25;5.20;;;2.70;;
70312;SDS011;57723;51.698;5.344;2022-11-20T05:48:50;7.22;;;3.10;;
70312;SDS011;57723;51.698;5.344;2022-11-20T05:51:16;9.27;;;2.77;;
70312;SDS011;57723;51.698;5.344;2022-11-20T05:53:42;4.28;;;2.60;;
70312;SDS011;57723;51.698;5.344;2022-11-20T05:56:09;6.07;;;2.63;;
70312;SDS011;57723;51.698;5.344;2022-11-20T05:58:35;6.45;;;2.80;;
70312;SDS011;57723;51.698;5.344;2022-11-20T06:03:29;54.75;;;45.60;;
70312;SDS011;57723;51.698;5.344;2022-11-20T06:05:54;53.60;;;46.20;;
70312;SDS011;57723;51.698;5.344;2022-11-20T06:08:19;47.87;;;43.40;;
70312;SDS011;57723;51.698;5.344;2022-11-20T06:10:44;47.43;;;43.43;;
70312;SDS011;57723;51.698;5.344;2022-11-20T06:13:09;49.73;;;44.93;;
70312;SDS011;57723;51.698;5.344;2022-11-20T06:15:34;44.97;;;41.17;;
70312;SDS011;57723;51.698;5.344;2022-11-20T06:18:00;45.57;;;42.00;;
70312;SDS011;57723;51.698;5.344;2022-11-20T06:20:25;48.27;;;43.83;;
70312;SDS011;57723;51.698;5.344;2022-11-20T06:22:50;46.30;;;42.70;;
70312;SDS011;57723;51.698;5.344;2022-11-20T06:25:15;49.40;;;45.67;;
70312;SDS011;57723;51.698;5.344;2022-11-20T06:27:40;47.73;;;43.63;;
70312;SDS011;57723;51.698;5.344;2022-11-20T06:30:05;48.67;;;44.97;;
70312;SDS011;57723;51.698;5.344;2022-11-20T06:32:31;48.17;;;44.20;;
70312;SDS011;57723;51.698;5.344;2022-11-20T06:34:57;48.63;;;45.15;;
70312;SDS011;57723;51.698;5.344;2022-11-20T06:37:22;48.30;;;44.67;;
70312;SDS011;57723;51.698;5.344;2022-11-20T06:39:47;46.93;;;42.97;;
70312;SDS011;57723;51.698;5.344;2022-11-20T06:42:13;50.27;;;45.47;;
70312;SDS011;57723;51.698;5.344;2022-11-20T06:44:38;49.10;;;45.60;;
70312;SDS011;57723;51.698;5.344;2022-11-20T06:47:03;48.50;;;45.17;;
70312;SDS011;57723;51.698;5.344;2022-11-20T06:49:28;49.00;;;45.30;;
70312;SDS011;57723;51.698;5.344;2022-11-20T06:51:53;47.53;;;43.97;;
70312;SDS011;57723;51.698;5.344;2022-11-20T06:54:18;47.53;;;43.63;;
70312;SDS011;57723;51.698;5.344;2022-11-20T06:56:46;49.47;;;45.57;;
70312;SDS011;57723;51.698;5.344;2022-11-20T06:59:11;44.58;;;40.95;;
70312;SDS011;57723;51.698;5.344;2022-11-20T07:01:36;49.87;;;45.90;;
70312;SDS011;57723;51.698;5.344;2022-11-20T07:04:02;49.43;;;45.30;;
70312;SDS011;57723;51.698;5.344;2022-11-20T07:06:28;47.65;;;44.10;;
70312;SDS011;57723;51.698;5.344;2022-11-20T07:08:53;48.60;;;44.80;;
70312;SDS011;57723;51.698;5.344;2022-11-20T07:11:18;50.70;;;46.17;;
70312;SDS011;57723;51.698;5.344;2022-11-20T07:13:43;48.83;;;45.00;;
70312;SDS011;57723;51.698;5.344;2022-11-20T07:16:08;47.97;;;43.67;;
70312;SDS011;57723;51.698;5.344;2022-11-20T07:18:34;48.30;;;44.37;;
70312;SDS011;57723;51.698;5.344;2022-11-20T07:21:00;45.55;;;42.15;;
70312;SDS011;57723;51.698;5.344;2022-11-20T07:23:25;50.93;;;47.07;;
70312;SDS011;57723;51.698;5.344;2022-11-20T07:25:50;47.93;;;44.10;;
70312;SDS011;57723;51.698;5.344;2022-11-20T07:28:15;47.60;;;43.93;;
70312;SDS011;57723;51.698;5.344;2022-11-20T07:30:40;50.70;;;46.67;;
70312;SDS011;57723;51.698;5.344;2022-11-20T07:33:06;52.30;;;47.80;;
70312;SDS011;57723;51.698;5.344;2022-11-20T07:35:31;51.20;;;47.20;;
70312;SDS011;57723;51.698;5.344;2022-11-20T07:37:56;49.60;;;45.90;;
70312;SDS011;57723;51.698;5.344;2022-11-20T07:40:21;50.97;;;47.03;;
70312;SDS011;57723;51.698;5.344;2022-11-20T07:42:50;49.20;;;45.20;;
70312;SDS011;57723;51.698;5.344;2022-11-20T07:45:16;48.67;;;45.03;;
70312;SDS011;57723;51.698;5.344;2022-11-20T07:47:41;49.80;;;45.93;;
70312;SDS011;57723;51.698;5.344;2022-11-20T07:50:06;50.50;;;46.47;;
70312;SDS011;57723;51.698;5.344;2022-11-20T07:52:32;48.55;;;44.63;;
70312;SDS011;57723;51.698;5.344;2022-11-20T07:54:57;49.50;;;45.77;;
70312;SDS011;57723;51.698;5.344;2022-11-20T07:57:22;50.03;;;46.03;;
70312;SDS011;57723;51.698;5.344;2022-11-20T07:59:48;49.67;;;45.40;;
70312;SDS011;57723;51.698;5.344;2022-11-20T08:02:13;49.93;;;45.83;;
70312;SDS011;57723;51.698;5.344;2022-11-20T08:04:38;52.07;;;47.97;;
70312;SDS011;57723;51.698;5.344;2022-11-20T08:07:03;52.37;;;47.87;;
70312;SDS011;57723;51.698;5.344;2022-11-20T08:09:28;49.67;;;45.70;;
70312;SDS011;57723;51.698;5.344;2022-11-20T08:11:54;51.77;;;47.80;;
70312;SDS011;57723;51.698;5.344;2022-11-20T08:14:37;49.80;;;45.78;;
70312;SDS011;57723;51.698;5.344;2022-11-20T08:17:02;48.33;;;44.53;;
70312;SDS011;57723;51.698;5.344;2022-11-20T08:19:28;48.00;;;43.93;;
70312;SDS011;57723;51.698;5.344;2022-11-20T08:21:54;51.07;;;46.90;;
70312;SDS011;57723;51.698;5.344;2022-11-20T08:24:19;48.38;;;44.15;;
70312;SDS011;57723;51.698;5.344;2022-11-20T08:26:45;47.80;;;44.00;;
70312;SDS011;57723;51.698;5.344;2022-11-20T08:29:10;51.10;;;47.27;;
70312;SDS011;57723;51.698;5.344;2022-11-20T08:31:35;50.93;;;46.93;;
70312;SDS011;57723;51.698;5.344;2022-11-20T08:34:00;47.20;;;43.27;;
70312;SDS011;57723;51.698;5.344;2022-11-20T08:36:25;47.63;;;43.93;;
70312;SDS011;57723;51.698;5.344;2022-11-20T08:38:52;50.58;;;46.45;;
70312;SDS011;57723;51.698;5.344;2022-11-20T08:41:17;49.33;;;45.53;;
70312;SDS011;57723;51.698;5.344;2022-11-20T08:43:56;49.58;;;45.78;;
70312;SDS011;57723;51.698;5.344;2022-11-20T08:46:21;50.67;;;46.65;;
70312;SDS011;57723;51.698;5.344;2022-11-20T08:48:47;51.22;;;47.25;;
70312;SDS011;57723;51.698;5.344;2022-11-20T08:51:12;50.10;;;46.40;;
70312;SDS011;57723;51.698;5.344;2022-11-20T08:53:38;48.93;;;44.77;;
70312;SDS011;57723;51.698;5.344;2022-11-20T08:56:04;48.80;;;45.20;;
70312;SDS011;57723;51.698;5.344;2022-11-20T08:58:29;49.90;;;46.27;;
70312;SDS011;57723;51.698;5.344;2022-11-20T09:00:54;48.77;;;45.10;;
70312;SDS011;57723;51.698;5.344;2022-11-20T09:03:19;14.53;;;7.63;;
70312;SDS011;57723;51.698;5.344;2022-11-20T09:05:44;15.33;;;5.83;;
70312;SDS011;57723;51.698;5.344;2022-11-20T09:08:10;13.33;;;5.73;;
70312;SDS011;57723;51.698;5.344;2022-11-20T09:10:35;13.63;;;6.10;;
70312;SDS011;57723;51.698;5.344;2022-11-20T09:13:01;15.07;;;5.53;;
70312;SDS011;57723;51.698;5.344;2022-11-20T09:15:26;18.80;;;5.80;;
70312;SDS011;57723;51.698;5.344;2022-11-20T09:17:52;14.52;;;5.80;;
70312;SDS011;57723;51.698;5.344;2022-11-20T09:20:18;13.17;;;5.30;;
70312;SDS011;57723;51.698;5.344;2022-11-20T09:22:43;14.43;;;5.53;;
70312;SDS011;57723;51.698;5.344;2022-11-20T09:25:09;12.73;;;5.53;;
70312;SDS011;57723;51.698;5.344;2022-11-20T09:27:34;15.40;;;5.60;;
70312;SDS011;57723;51.698;5.344;2022-11-20T09:30:00;15.30;;;5.75;;
70312;SDS011;57723;51.698;5.344;2022-11-20T09:32:25;13.80;;;5.60;;
70312;SDS011;57723;51.698;5.344;2022-11-20T09:34:50;11.17;;;5.27;;
70312;SDS011;57723;51.698;5.344;2022-11-20T09:37:16;11.47;;;5.10;;
70312;SDS011;57723;51.698;5.344;2022-11-20T09:39:41;12.23;;;5.37;;
70312;SDS011;57723;51.698;5.344;2022-11-20T09:52:46;13.25;;;5.68;;
70312;SDS011;57723;51.698;5.344;2022-11-20T09:55:14;9.57;;;5.00;;
70312;SDS011;57723;51.698;5.344;2022-11-20T09:57:41;16.07;;;5.40;;
70312;SDS011;57723;51.698;5.344;2022-11-20T10:00:09;15.73;;;5.38;;
70312;SDS011;57723;51.698;5.344;2022-11-20T10:02:37;12.20;;;5.32;;
70312;SDS011;57723;51.698;5.344;2022-11-20T10:05:10;12.55;;;5.82;;
70312;SDS011;57723;51.698;5.344;2022-11-20T10:07:42;17.83;;;5.47;;
70312;SDS011;57723;51.698;5.344;2022-11-20T10:10:16;14.50;;;5.43;;
70312;SDS011;57723;51.698;5.344;2022-11-20T10:25:47;13.50;;;5.38;;
70312;SDS011;57723;51.698;5.344;2022-11-20T10:30:45;12.38;;;5.05;;
70312;SDS011;57723;51.698;5.344;2022-11-20T10:33:15;14.97;;;5.20;;
70312;SDS011;57723;51.698;5.344;2022-11-20T10:35:45;13.25;;;5.30;;
70312;SDS011;57723;51.698;5.344;2022-11-20T10:38:23;15.55;;;5.55;;
70312;SDS011;57723;51.698;5.344;2022-11-20T10:40:52;14.73;;;5.38;;
70312;SDS011;57723;51.698;5.344;2022-11-20T10:43:21;13.27;;;5.63;;
70312;SDS011;57723;51.698;5.344;2022-11-20T10:46:00;14.00;;;5.10;;
70312;SDS011;57723;51.698;5.344;2022-11-20T10:48:27;15.98;;;5.50;;
70312;SDS011;57723;51.698;5.344;2022-11-20T10:55:56;15.15;;;5.57;;
70312;SDS011;57723;51.698;5.344;2022-11-20T10:58:28;16.73;;;5.72;;
70312;SDS011;57723;51.698;5.344;2022-11-20T11:01:05;14.02;;;5.72;;
70312;SDS011;57723;51.698;5.344;2022-11-20T11:03:31;12.75;;;5.25;;
70312;SDS011;57723;51.698;5.344;2022-11-20T11:05:59;14.17;;;5.30;;
70312;SDS011;57723;51.698;5.344;2022-11-20T11:08:28;11.57;;;5.53;;
70312;SDS011;57723;51.698;5.344;2022-11-20T11:10:57;12.93;;;5.32;;
70312;SDS011;57723;51.698;5.344;2022-11-20T11:15:49;13.65;;;5.00;;
70312;SDS011;57723;51.698;5.344;2022-11-20T11:20:52;11.40;;;5.00;;
70312;SDS011;57723;51.698;5.344;2022-11-20T11:25:56;12.20;;;5.20;;
70312;SDS011;57723;51.698;5.344;2022-11-20T11:28:22;9.98;;;4.97;;
70312;SDS011;57723;51.698;5.344;2022-11-20T11:30:49;14.88;;;5.38;;
70312;SDS011;57723;51.698;5.344;2022-11-20T11:33:19;11.33;;;5.17;;
70312;SDS011;57723;51.698;5.344;2022-11-20T11:35:45;15.77;;;5.23;;
70312;SDS011;57723;51.698;5.344;2022-11-20T11:38:12;10.20;;;4.70;;
70312;SDS011;57723;51.698;5.344;2022-11-20T11:40:39;11.07;;;4.90;;
70312;SDS011;57723;51.698;5.344;2022-11-20T11:43:05;11.53;;;4.90;;
70312;SDS011;57723;51.698;5.344;2022-11-20T11:45:54;9.90;;;4.38;;
70312;SDS011;57723;51.698;5.344;2022-11-20T11:48:19;14.80;;;5.05;;
70312;SDS011;57723;51.698;5.344;2022-11-20T11:50:48;12.80;;;5.60;;
70312;SDS011;57723;51.698;5.344;2022-11-20T11:53:18;11.20;;;4.95;;
70312;SDS011;57723;51.698;5.344;2022-11-20T12:00:34;11.27;;;5.20;;
70312;SDS011;57723;51.698;5.344;2022-11-20T12:03:03;11.82;;;5.07;;
70312;SDS011;57723;51.698;5.344;2022-11-20T12:05:38;11.43;;;4.85;;
70312;SDS011;57723;51.698;5.344;2022-11-20T12:13:06;13.33;;;5.00;;
70312;SDS011;57723;51.698;5.344;2022-11-20T12:15:35;11.85;;;4.72;;
70312;SDS011;57723;51.698;5.344;2022-11-20T12:18:01;11.93;;;4.85;;
70312;SDS011;57723;51.698;5.344;2022-11-20T12:20:29;10.43;;;5.00;;
70312;SDS011;57723;51.698;5.344;2022-11-20T12:23:04;11.73;;;4.80;;
70312;SDS011;57723;51.698;5.344;2022-11-20T12:25:35;13.30;;;5.43;;
70312;SDS011;57723;51.698;5.344;2022-11-20T12:30:28;11.23;;;4.90;;
70312;SDS011;57723;51.698;5.344;2022-11-20T12:33:58;11.32;;;4.93;;
70312;SDS011;57723;51.698;5.344;2022-11-20T12:43:21;9.97;;;5.10;;
70312;SDS011;57723;51.698;5.344;2022-11-20T12:46:38;10.33;;;4.77;;
70312;SDS011;57723;51.698;5.344;2022-11-20T13:01:54;10.93;;;5.37;;
70312;SDS011;57723;51.698;5.344;2022-11-20T13:04:27;11.32;;;4.93;;
70312;SDS011;57723;51.698;5.344;2022-11-20T13:06:55;10.60;;;5.18;;
70312;SDS011;57723;51.698;5.344;2022-11-20T13:09:22;13.50;;;5.18;;
70312;SDS011;57723;51.698;5.344;2022-11-20T13:14:37;12.60;;;5.17;;
70312;SDS011;57723;51.698;5.344;2022-11-20T13:17:17;9.32;;;4.97;;
70312;SDS011;57723;51.698;5.344;2022-11-20T13:19:52;11.77;;;5.50;;
70312;SDS011;57723;51.698;5.344;2022-11-20T13:22:24;11.93;;;5.75;;
70312;SDS011;57723;51.698;5.344;2022-11-20T13:24:52;12.23;;;5.10;;
70312;SDS011;57723;51.698;5.344;2022-11-20T13:27:18;11.13;;;5.13;;
70312;SDS011;57723;51.698;5.344;2022-11-20T13:29:45;11.57;;;5.75;;
70312;SDS011;57723;51.698;5.344;2022-11-20T13:32:17;10.80;;;5.28;;
70312;SDS011;57723;51.698;5.344;2022-11-20T13:37:37;10.70;;;4.90;;
70312;SDS011;57723;51.698;5.344;2022-11-20T13:40:11;11.30;;;5.25;;
70312;SDS011;57723;51.698;5.344;2022-11-20T13:42:43;10.70;;;5.35;;
70312;SDS011;57723;51.698;5.344;2022-11-20T13:45:31;11.18;;;5.35;;
70312;SDS011;57723;51.698;5.344;2022-11-20T13:47:55;11.20;;;5.20;;
70312;SDS011;57723;51.698;5.344;2022-11-20T13:50:21;11.10;;;5.25;;
70312;SDS011;57723;51.698;5.344;2022-11-20T13:52:55;11.13;;;5.53;;
70312;SDS011;57723;51.698;5.344;2022-11-20T14:00:19;11.95;;;5.13;;
70312;SDS011;57723;51.698;5.344;2022-11-20T14:02:52;10.57;;;5.15;;
70312;SDS011;57723;51.698;5.344;2022-11-20T14:05:23;10.77;;;5.70;;
70312;SDS011;57723;51.698;5.344;2022-11-20T14:07:49;11.75;;;5.55;;
70312;SDS011;57723;51.698;5.344;2022-11-20T14:10:25;10.40;;;4.80;;
70312;SDS011;57723;51.698;5.344;2022-11-20T14:12:50;11.38;;;5.57;;
70312;SDS011;57723;51.698;5.344;2022-11-20T14:15:34;11.43;;;5.27;;
70312;SDS011;57723;51.698;5.344;2022-11-20T14:17:59;11.98;;;5.55;;
70312;SDS011;57723;51.698;5.344;2022-11-20T14:20:36;9.68;;;5.70;;
70312;SDS011;57723;51.698;5.344;2022-11-20T14:23:02;13.02;;;5.50;;
70312;SDS011;57723;51.698;5.344;2022-11-20T14:25:28;16.63;;;5.75;;
70312;SDS011;57723;51.698;5.344;2022-11-20T14:28:00;12.07;;;5.55;;
70312;SDS011;57723;51.698;5.344;2022-11-20T14:30:26;14.48;;;6.20;;
70312;SDS011;57723;51.698;5.344;2022-11-20T14:32:53;10.32;;;5.57;;
70312;SDS011;57723;51.698;5.344;2022-11-20T14:35:25;11.52;;;5.35;;
70312;SDS011;57723;51.698;5.344;2022-11-20T14:37:51;10.55;;;5.50;;
70312;SDS011;57723;51.698;5.344;2022-11-20T14:40:30;13.38;;;5.25;;
70312;SDS011;57723;51.698;5.344;2022-11-20T14:42:56;10.98;;;5.40;;
70312;SDS011;57723;51.698;5.344;2022-11-20T14:45:22;11.77;;;5.40;;
70312;SDS011;57723;51.698;5.344;2022-11-20T14:47:48;13.40;;;5.60;;
70312;SDS011;57723;51.698;5.344;2022-11-20T14:50:27;12.07;;;5.07;;
70312;SDS011;57723;51.698;5.344;2022-11-20T14:52:56;12.07;;;5.60;;
70312;SDS011;57723;51.698;5.344;2022-11-20T14:55:31;10.32;;;5.30;;
70312;SDS011;57723;51.698;5.344;2022-11-20T14:57:59;10.55;;;5.35;;
70312;SDS011;57723;51.698;5.344;2022-11-20T15:00:24;12.80;;;6.05;;
70312;SDS011;57723;51.698;5.344;2022-11-20T15:02:50;14.53;;;5.13;;
70312;SDS011;57723;51.698;5.344;2022-11-20T15:05:17;13.68;;;5.38;;
70312;SDS011;57723;51.698;5.344;2022-11-20T15:07:44;11.68;;;5.40;;
70312;SDS011;57723;51.698;5.344;2022-11-20T15:10:19;11.88;;;5.40;;
70312;SDS011;57723;51.698;5.344;2022-11-20T15:12:49;12.98;;;6.05;;
70312;SDS011;57723;51.698;5.344;2022-11-20T15:15:17;12.38;;;5.72;;
70312;SDS011;57723;51.698;5.344;2022-11-20T15:17:42;13.77;;;5.95;;
70312;SDS011;57723;51.698;5.344;2022-11-20T15:20:09;11.87;;;5.37;;
70312;SDS011;57723;51.698;5.344;2022-11-20T15:22:36;13.50;;;5.45;;
70312;SDS011;57723;51.698;5.344;2022-11-20T15:25:02;10.03;;;5.13;;
70312;SDS011;57723;51.698;5.344;2022-11-20T15:27:27;11.97;;;5.57;;
70312;SDS011;57723;51.698;5.344;2022-11-20T15:29:53;9.73;;;5.00;;
70312;SDS011;57723;51.698;5.344;2022-11-20T15:32:18;10.45;;;5.22;;
70312;SDS011;57723;51.698;5.344;2022-11-20T15:34:43;11.20;;;5.00;;
70312;SDS011;57723;51.698;5.344;2022-11-20T15:37:08;11.35;;;5.30;;
70312;SDS011;57723;51.698;5.344;2022-11-20T15:39:34;11.98;;;5.53;;
70312;SDS011;57723;51.698;5.344;2022-11-20T15:41:59;12.87;;;5.03;;
70312;SDS011;57723;51.698;5.344;2022-11-20T15:44:24;12.55;;;5.03;;
70312;SDS011;57723;51.698;5.344;2022-11-20T15:46:49;10.80;;;5.40;;
70312;SDS011;57723;51.698;5.344;2022-11-20T15:49:15;9.97;;;4.83;;
70312;SDS011;57723;51.698;5.344;2022-11-20T15:51:41;11.52;;;5.03;;
70312;SDS011;57723;51.698;5.344;2022-11-20T15:54:12;12.30;;;5.22;;
70312;SDS011;57723;51.698;5.344;2022-11-20T15:56:38;10.80;;;5.00;;
70312;SDS011;57723;51.698;5.344;2022-11-20T15:59:03;13.63;;;5.33;;
70312;SDS011;57723;51.698;5.344;2022-11-20T16:01:28;9.73;;;4.90;;
70312;SDS011;57723;51.698;5.344;2022-11-20T16:03:54;11.70;;;5.23;;
70312;SDS011;57723;51.698;5.344;2022-11-20T16:06:19;12.20;;;5.47;;